Time;durP1;ratioP1;P1;durP2;ratioP2;P2;SDS_P1;SDS_P2;PMS_P1;PMS_P2;Temp;Humidity;BMP_temperature;BMP_pressure;BME280_temperature;BME280_humidity;BME280_pressure;Samples;Min_cycle;Max_cycle;Signal;HPM_P1;HPM_P2
2022/09/27 00:01:22;;;;;;;;;;;12.00;85.10;;;;;;5042968;28;19964;-63
2022/09/27 00:03:54;;;;;;;;;;;11.90;85.40;;;;;;5044648;28;20011;-63
2022/09/27 00:06:23;;;;;;;;;;;11.90;85.50;;;;;;5039127;28;19929;-64
2022/09/27 00:08:50;;;;;;;;;;;11.90;85.50;;;;;;5046711;28;20347;-64
2022/09/27 00:11:23;;;;;;;;;;;12.00;85.30;;;;;;5040591;28;19964;-64
2022/09/27 00:13:51;;;;;;;;;;;12.00;85.40;;;;;;5039600;28;19940;-62
2022/09/27 00:16:18;;;;;;;;;;;11.90;85.40;;;;;;5046418;28;19928;-63
2022/09/27 00:18:45;;;;;;;;;;;11.90;85.60;;;;;;5043128;28;20015;-65
2022/09/27 00:21:13;;;;;;;;;;;11.90;85.70;;;;;;5044738;28;19964;-64
2022/09/27 00:23:40;;;;;;;;;;;11.90;85.60;;;;;;5046454;28;19929;-64
2022/09/27 00:26:07;;;;;;;;;;;11.90;85.70;;;;;;5044412;28;19928;-64
2022/09/27 00:28:35;;;;;;;;;;;11.90;85.60;;;;;;5044688;28;19928;-63
2022/09/27 00:31:05;;;;;;;;;;;11.90;85.80;;;;;;5044078;28;19935;-64
2022/09/27 00:33:32;;;;;;;;;;;11.90;85.70;;;;;;5045548;28;19929;-64
2022/09/27 00:36:03;;;;;;;;;;;11.90;85.70;;;;;;5045500;28;19935;-64
2022/09/27 00:38:30;;;;;;;;;;;11.90;85.80;;;;;;5027602;28;20011;-64
2022/09/27 00:40:57;;;;;;;;;;;11.90;85.80;;;;;;5035612;28;19929;-66
2022/09/27 00:43:23;;;;;;;;;;;11.90;85.60;;;;;;5026424;28;20047;-63
2022/09/27 00:45:59;;;;;;;;;;;11.90;85.60;;;;;;5040336;28;19956;-65
2022/09/27 00:48:28;;;;;;;;;;;11.90;85.50;;;;;;5016218;28;19965;-64
2022/09/27 00:50:56;;;;;;;;;;;12.00;85.50;;;;;;5028620;28;19936;-65
2022/09/27 00:53:25;;;;;;;;;;;11.90;85.60;;;;;;5026010;28;19925;-63
2022/09/27 00:55:54;;;;;;;;;;;11.90;85.60;;;;;;5030597;28;19979;-65
2022/09/27 00:58:23;;;;;;;;;;;11.90;85.60;;;;;;5025664;28;20024;-64
2022/09/27 01:00:52;;;;;;;;;;;11.90;85.80;;;;;;5029339;28;20016;-63
2022/09/27 01:03:23;;;;;;;;;;;11.90;85.80;;;;;;5019773;28;20860;-63
2022/09/27 01:05:49;;;;;;;;;;;11.90;86.00;;;;;;5024794;28;19968;-63
2022/09/27 01:08:16;;;;;;;;;;;11.90;86.10;;;;;;5025118;28;20324;-63
2022/09/27 01:10:48;;;;;;;;;;;11.90;86.40;;;;;;5018907;28;19929;-63
2022/09/27 01:13:20;;;;;;;;;;;11.80;86.50;;;;;;5045336;28;20111;-64
2022/09/27 01:15:50;;;;;;;;;;;11.80;86.50;;;;;;5047285;28;19929;-63
2022/09/27 01:18:26;;;;;;;;;;;11.80;86.60;;;;;;5036168;28;20063;-63
2022/09/27 01:21:07;;;;;;;;;;;11.70;86.70;;;;;;5044969;28;20024;-64
2022/09/27 01:23:53;;;;;;;;;;;11.70;86.80;;;;;;5044371;28;20358;-64
2022/09/27 01:26:28;;;;;;;;;;;11.70;86.70;;;;;;5019177;28;19982;-64
2022/09/27 01:28:57;;;;;;;;;;;11.70;86.50;;;;;;5046328;28;19936;-63
2022/09/27 01:31:31;;;;;;;;;;;11.70;86.60;;;;;;5030464;28;20335;-64
2022/09/27 01:34:02;;;;;;;;;;;11.70;86.50;;;;;;5045523;28;19925;-64
2022/09/27 01:36:34;;;;;;;;;;;11.70;86.60;;;;;;5039418;28;20440;-64
2022/09/27 01:39:09;;;;;;;;;;;11.80;86.50;;;;;;5012696;28;20229;-63
2022/09/27 01:42:00;;;;;;;;;;;11.70;86.60;;;;;;5047597;28;20019;-63
2022/09/27 01:44:40;;;;;;;;;;;11.70;86.50;;;;;;5048338;28;20016;-64
2022/09/27 01:47:17;;;;;;;;;;;11.80;86.60;;;;;;5026668;28;20039;-64
2022/09/27 01:49:52;;;;;;;;;;;11.80;86.80;;;;;;5022734;28;20020;-64
2022/09/27 01:52:20;;;;;;;;;;;11.80;86.60;;;;;;5045751;28;20389;-64
2022/09/27 01:54:51;;;;;;;;;;;11.70;86.70;;;;;;5043240;28;19924;-64
2022/09/27 01:57:48;;;;;;;;;;;11.80;86.70;;;;;;5011962;28;19929;-65
2022/09/27 02:00:24;;;;;;;;;;;11.70;86.60;;;;;;5037594;28;19941;-64
2022/09/27 02:02:59;;;;;;;;;;;11.70;86.80;;;;;;5047598;28;19928;-64
2022/09/27 02:05:37;;;;;;;;;;;11.70;86.80;;;;;;5042471;28;19929;-64
2022/09/27 02:08:26;;;;;;;;;;;11.70;87.00;;;;;;5030689;28;19939;-64
2022/09/27 02:10:56;;;;;;;;;;;11.70;86.80;;;;;;5016889;28;19925;-63
2022/09/27 02:13:25;;;;;;;;;;;11.70;86.60;;;;;;5016183;28;19938;-64
2022/09/27 02:16:00;;;;;;;;;;;11.70;86.90;;;;;;5028035;28;19925;-65
2022/09/27 02:18:43;;;;;;;;;;;11.70;86.70;;;;;;5038620;28;20017;-64
2022/09/27 02:21:11;;;;;;;;;;;11.70;87.00;;;;;;5027284;28;19928;-63
2022/09/27 02:23:42;;;;;;;;;;;11.70;86.70;;;;;;5046085;28;20023;-63
2022/09/27 02:26:13;;;;;;;;;;;11.70;86.90;;;;;;5034052;28;19974;-62
2022/09/27 02:28:41;;;;;;;;;;;11.70;86.70;;;;;;5028989;28;19932;-64
2022/09/27 02:31:12;;;;;;;;;;;11.70;86.80;;;;;;5044014;28;19935;-65
2022/09/27 02:33:42;;;;;;;;;;;11.70;86.90;;;;;;5025482;28;20016;-63
2022/09/27 02:36:09;;;;;;;;;;;11.70;86.70;;;;;;5015174;28;20359;-64
2022/09/27 02:38:35;;;;;;;;;;;11.70;86.80;;;;;;5027566;28;20392;-65
2022/09/27 02:41:05;;;;;;;;;;;11.70;86.80;;;;;;5030526;28;20075;-63
2022/09/27 02:43:33;;;;;;;;;;;11.70;87.00;;;;;;5027121;28;19932;-64
2022/09/27 02:46:14;;;;;;;;;;;11.70;86.70;;;;;;5019121;28;19933;-63
2022/09/27 02:48:50;;;;;;;;;;;11.70;87.00;;;;;;5033734;28;19929;-65
2022/09/27 02:51:22;;;;;;;;;;;11.70;86.90;;;;;;5032487;28;19940;-64
2022/09/27 02:53:56;;;;;;;;;;;11.70;86.80;;;;;;5037275;28;19935;-65
2022/09/27 02:56:47;;;;;;;;;;;11.70;86.90;;;;;;5022199;28;20052;-62
2022/09/27 02:59:41;;;;;;;;;;;11.60;87.00;;;;;;5028047;28;19925;-63
2022/09/27 03:02:26;;;;;;;;;;;11.70;87.10;;;;;;5031012;28;20338;-65
2022/09/27 03:05:18;;;;;;;;;;;11.60;87.20;;;;;;5046118;28;19955;-64
2022/09/27 03:07:45;;;;;;;;;;;11.60;87.00;;;;;;5044396;28;20385;-63
2022/09/27 03:10:16;;;;;;;;;;;11.60;87.00;;;;;;5027300;28;19925;-63
2022/09/27 03:12:43;;;;;;;;;;;11.60;87.10;;;;;;5041651;28;19925;-64
2022/09/27 03:15:10;;;;;;;;;;;11.60;87.10;;;;;;5030220;28;19932;-64
2022/09/27 03:17:55;;;;;;;;;;;11.60;87.10;;;;;;5044782;28;19932;-64
2022/09/27 03:20:42;;;;;;;;;;;11.70;86.90;;;;;;5023798;28;19940;-65
2022/09/27 03:23:11;;;;;;;;;;;11.60;87.20;;;;;;5015458;28;19980;-63
2022/09/27 03:25:38;;;;;;;;;;;11.60;87.10;;;;;;5036485;28;19971;-64
2022/09/27 03:28:05;;;;;;;;;;;11.60;87.10;;;;;;5042837;28;20473;-65
2022/09/27 03:30:36;;;;;;;;;;;11.60;87.20;;;;;;5018793;28;19932;-65
2022/09/27 03:33:03;;;;;;;;;;;11.60;87.20;;;;;;5017468;28;19929;-64
2022/09/27 03:35:36;;;;;;;;;;;11.50;87.30;;;;;;5042624;28;19928;-63
2022/09/27 03:38:06;;;;;;;;;;;11.60;87.10;;;;;;5023133;28;20158;-64
2022/09/27 03:40:33;;;;;;;;;;;11.60;87.10;;;;;;5037657;28;19929;-64
2022/09/27 03:43:00;;;;;;;;;;;11.60;87.10;;;;;;5017062;28;19936;-65
2022/09/27 03:45:27;;;;;;;;;;;11.60;87.00;;;;;;5018565;28;19928;-64
2022/09/27 03:47:57;;;;;;;;;;;11.50;87.30;;;;;;5018807;28;19945;-65
2022/09/27 03:50:24;;;;;;;;;;;11.50;87.30;;;;;;5019356;28;19928;-63
2022/09/27 03:52:51;;;;;;;;;;;11.60;87.20;;;;;;5034288;28;19994;-63
2022/09/27 03:55:19;;;;;;;;;;;11.60;87.10;;;;;;5017842;28;19929;-64
2022/09/27 03:57:46;;;;;;;;;;;11.60;87.00;;;;;;5033014;28;19925;-64
2022/09/27 04:00:16;;;;;;;;;;;11.50;87.20;;;;;;5011760;28;19929;-64
2022/09/27 04:02:42;;;;;;;;;;;11.50;87.10;;;;;;5032941;28;19931;-65
2022/09/27 04:05:38;;;;;;;;;;;11.60;87.00;;;;;;5026248;28;20039;-65
2022/09/27 04:08:12;;;;;;;;;;;11.60;87.00;;;;;;5028416;28;19950;-63
2022/09/27 04:10:42;;;;;;;;;;;11.50;87.30;;;;;;5013081;28;20024;-64
2022/09/27 04:13:10;;;;;;;;;;;11.40;87.20;;;;;;5040664;28;19924;-63
2022/09/27 04:15:51;;;;;;;;;;;11.50;87.10;;;;;;5017424;28;19933;-64
2022/09/27 04:18:42;;;;;;;;;;;11.50;86.90;;;;;;5030253;28;19936;-64
2022/09/27 04:21:30;;;;;;;;;;;11.50;86.80;;;;;;5027934;28;20481;-65
2022/09/27 04:23:56;;;;;;;;;;;11.50;86.50;;;;;;5041030;28;19925;-68
2022/09/27 04:26:25;;;;;;;;;;;11.50;86.40;;;;;;5039737;28;19943;-63
2022/09/27 04:28:59;;;;;;;;;;;11.50;86.40;;;;;;5019069;28;19947;-65
2022/09/27 04:31:25;;;;;;;;;;;11.50;86.30;;;;;;5033461;28;19925;-65
2022/09/27 04:34:13;;;;;;;;;;;11.50;86.30;;;;;;5017604;28;19937;-65
2022/09/27 04:36:38;;;;;;;;;;;11.40;86.40;;;;;;5038456;28;20358;-64
2022/09/27 04:39:09;;;;;;;;;;;11.50;86.50;;;;;;5032032;28;20331;-65
2022/09/27 04:41:47;;;;;;;;;;;11.40;86.40;;;;;;5019322;28;19929;-63
2022/09/27 04:44:13;;;;;;;;;;;11.50;86.30;;;;;;5039098;28;19925;-64
2022/09/27 04:46:47;;;;;;;;;;;11.50;86.40;;;;;;5024319;28;20298;-65
2022/09/27 04:49:14;;;;;;;;;;;11.50;86.50;;;;;;5027306;28;20353;-63
2022/09/27 04:51:41;;;;;;;;;;;11.40;86.60;;;;;;5017026;28;19963;-64
2022/09/27 04:54:08;;;;;;;;;;;11.30;86.80;;;;;;5023465;28;19925;-65
2022/09/27 04:56:42;;;;;;;;;;;11.40;86.50;;;;;;5024761;28;19933;-63
2022/09/27 04:59:10;;;;;;;;;;;11.30;86.80;;;;;;5022198;28;19925;-65
2022/09/27 05:01:37;;;;;;;;;;;11.30;86.90;;;;;;5013934;28;19932;-64
2022/09/27 05:04:18;;;;;;;;;;;11.30;86.60;;;;;;5033161;28;19925;-64
2022/09/27 05:06:48;;;;;;;;;;;11.30;86.60;;;;;;5017184;28;20031;-63
2022/09/27 05:09:19;;;;;;;;;;;11.30;86.50;;;;;;5033491;28;20268;-65
2022/09/27 05:11:50;;;;;;;;;;;11.20;86.70;;;;;;5037809;28;19933;-65
2022/09/27 05:14:33;;;;;;;;;;;11.20;86.60;;;;;;5038230;28;19928;-63
2022/09/27 05:17:17;;;;;;;;;;;11.20;86.50;;;;;;5037178;28;20436;-64
2022/09/27 05:20:02;;;;;;;;;;;11.30;86.60;;;;;;5039514;28;20030;-66
2022/09/27 05:22:33;;;;;;;;;;;11.30;86.30;;;;;;5042638;28;19932;-64
2022/09/27 05:25:00;;;;;;;;;;;11.30;86.20;;;;;;5035384;28;19932;-62
2022/09/27 05:27:27;;;;;;;;;;;11.30;86.20;;;;;;5017926;28;19964;-65
2022/09/27 05:29:55;;;;;;;;;;;11.30;86.30;;;;;;5037230;28;19929;-66
2022/09/27 05:32:28;;;;;;;;;;;11.30;86.30;;;;;;5013678;28;20409;-65
2022/09/27 05:35:16;;;;;;;;;;;11.30;86.20;;;;;;5040522;28;19925;-65
2022/09/27 05:37:43;;;;;;;;;;;11.30;86.30;;;;;;5037978;28;19940;-65
2022/09/27 05:40:10;;;;;;;;;;;11.20;86.30;;;;;;5022843;28;19963;-65
2022/09/27 05:42:40;;;;;;;;;;;11.20;86.50;;;;;;5039989;28;19940;-64
2022/09/27 05:45:11;;;;;;;;;;;11.20;86.40;;;;;;5024986;28;20015;-65
2022/09/27 05:47:38;;;;;;;;;;;11.30;86.30;;;;;;5036282;28;19954;-62
2022/09/27 05:50:08;;;;;;;;;;;11.20;86.50;;;;;;5023402;28;19925;-64
2022/09/27 05:52:35;;;;;;;;;;;11.20;86.40;;;;;;5039879;28;20474;-65
2022/09/27 05:55:02;;;;;;;;;;;11.20;86.50;;;;;;5011234;28;20114;-64
2022/09/27 05:57:29;;;;;;;;;;;11.20;86.50;;;;;;5042737;28;19928;-64
2022/09/27 06:00:02;;;;;;;;;;;11.20;86.60;;;;;;5023075;28;19933;-65
2022/09/27 06:02:43;;;;;;;;;;;11.20;86.60;;;;;;5039672;28;20350;-64
2022/09/27 06:05:29;;;;;;;;;;;11.10;86.70;;;;;;5044976;28;20013;-64
2022/09/27 06:08:15;;;;;;;;;;;11.10;86.70;;;;;;5035181;28;19940;-63
2022/09/27 06:10:46;;;;;;;;;;;11.20;86.60;;;;;;5011692;28;19936;-64
2022/09/27 06:13:14;;;;;;;;;;;11.20;86.40;;;;;;5038450;28;20329;-65
2022/09/27 06:15:43;;;;;;;;;;;11.20;86.60;;;;;;5003367;28;19929;-63
2022/09/27 06:18:13;;;;;;;;;;;11.10;86.60;;;;;;5019892;28;19974;-64
2022/09/27 06:20:41;;;;;;;;;;;11.20;86.50;;;;;;5012089;28;19929;-65
2022/09/27 06:23:10;;;;;;;;;;;11.20;86.50;;;;;;5040169;28;19978;-65
2022/09/27 06:25:37;;;;;;;;;;;11.10;86.70;;;;;;5036693;28;19976;-63
2022/09/27 06:28:17;;;;;;;;;;;11.10;86.70;;;;;;5013546;28;20321;-65
2022/09/27 06:30:47;;;;;;;;;;;11.10;86.70;;;;;;5027663;28;20481;-66
2022/09/27 06:33:38;;;;;;;;;;;11.10;86.70;;;;;;5035467;28;19925;-66
2022/09/27 06:36:05;;;;;;;;;;;11.10;86.70;;;;;;5035117;28;19935;-63
2022/09/27 06:38:34;;;;;;;;;;;11.00;87.00;;;;;;5031639;28;19925;-64
2022/09/27 06:41:24;;;;;;;;;;;11.00;86.90;;;;;;5029407;28;19929;-64
2022/09/27 06:44:05;;;;;;;;;;;11.10;86.80;;;;;;5017183;28;19935;-66
2022/09/27 06:46:50;;;;;;;;;;;11.00;86.90;;;;;;5035701;28;19957;-64
2022/09/27 06:49:39;;;;;;;;;;;11.10;86.70;;;;;;5017978;28;19937;-65
2022/09/27 06:52:06;;;;;;;;;;;11.10;86.80;;;;;;5027881;28;19925;-65
2022/09/27 06:54:33;;;;;;;;;;;11.10;86.80;;;;;;5029979;28;19964;-64
2022/09/27 06:56:59;;;;;;;;;;;11.10;86.90;;;;;;5013114;28;19929;-64
2022/09/27 07:02:29;;;;;;;;;;;11.20;86.70;;;;;;5019936;28;20004;-65
2022/09/27 07:05:18;;;;;;;;;;;11.20;86.60;;;;;;5019965;28;19940;-65
2022/09/27 07:07:57;;;;;;;;;;;11.20;86.60;;;;;;5027313;28;20495;-66
2022/09/27 07:10:25;;;;;;;;;;;11.20;86.60;;;;;;5030403;28;20386;-65
2022/09/27 07:12:53;;;;;;;;;;;11.20;86.70;;;;;;5019393;28;20366;-63
2022/09/27 07:15:21;;;;;;;;;;;11.20;86.80;;;;;;5017659;28;19933;-65
2022/09/27 07:17:48;;;;;;;;;;;11.20;86.80;;;;;;5006905;28;19928;-65
2022/09/27 07:20:15;;;;;;;;;;;11.20;86.70;;;;;;5012292;28;19950;-64
2022/09/27 07:22:44;;;;;;;;;;;11.10;86.80;;;;;;5032988;28;19955;-63
2022/09/27 07:25:12;;;;;;;;;;;11.20;86.80;;;;;;5023335;28;20049;-64
2022/09/27 07:27:40;;;;;;;;;;;11.20;86.80;;;;;;5013211;28;20076;-64
2022/09/27 07:30:09;;;;;;;;;;;11.10;86.80;;;;;;5016412;28;19929;-65
2022/09/27 07:32:36;;;;;;;;;;;11.20;86.80;;;;;;5028407;28;19936;-66
2022/09/27 07:35:05;;;;;;;;;;;11.10;86.90;;;;;;5032108;28;19925;-65
2022/09/27 07:37:32;;;;;;;;;;;11.10;86.80;;;;;;5033610;28;19933;-64
2022/09/27 07:40:01;;;;;;;;;;;11.20;86.60;;;;;;5011803;28;20019;-64
2022/09/27 07:42:29;;;;;;;;;;;11.20;86.70;;;;;;5026343;28;19929;-65
2022/09/27 07:44:57;;;;;;;;;;;11.20;86.60;;;;;;5036332;28;19939;-65
2022/09/27 07:47:50;;;;;;;;;;;11.20;86.50;;;;;;5015826;28;19928;-63
2022/09/27 07:50:39;;;;;;;;;;;11.30;86.50;;;;;;5039947;28;19936;-65
2022/09/27 07:53:39;;;;;;;;;;;11.30;86.50;;;;;;5043486;28;20019;-65
2022/09/27 07:56:30;;;;;;;;;;;11.20;86.60;;;;;;5030688;28;19929;-65
2022/09/27 07:58:57;;;;;;;;;;;11.30;86.60;;;;;;5026597;28;19924;-64
2022/09/27 08:01:24;;;;;;;;;;;11.30;86.60;;;;;;5021076;28;19936;-67
2022/09/27 08:03:52;;;;;;;;;;;11.30;86.60;;;;;;5019341;28;19979;-68
2022/09/27 08:06:20;;;;;;;;;;;11.30;86.50;;;;;;5027043;28;19932;-68
2022/09/27 08:08:48;;;;;;;;;;;11.40;86.60;;;;;;5028502;28;19933;-67
2022/09/27 08:11:18;;;;;;;;;;;11.40;86.30;;;;;;5011431;28;20061;-68
2022/09/27 08:13:51;;;;;;;;;;;11.40;86.30;;;;;;5032902;28;20290;-67
2022/09/27 08:16:20;;;;;;;;;;;11.40;86.30;;;;;;5030413;28;19937;-67
2022/09/27 08:19:19;;;;;;;;;;;11.40;86.10;;;;;;5012148;28;19929;-69
2022/09/27 08:22:05;;;;;;;;;;;11.50;86.30;;;;;;5039873;28;19940;-68
2022/09/27 08:24:53;;;;;;;;;;;11.50;86.10;;;;;;5034443;28;19925;-68
2022/09/27 08:27:43;;;;;;;;;;;11.50;86.40;;;;;;5008290;28;20304;-68
2022/09/27 08:30:31;;;;;;;;;;;11.60;86.10;;;;;;5008813;28;20808;-67
2022/09/27 08:32:58;;;;;;;;;;;11.70;85.90;;;;;;5039674;28;20020;-68
2022/09/27 08:35:28;;;;;;;;;;;11.70;85.80;;;;;;5026124;28;19972;-68
2022/09/27 08:37:58;;;;;;;;;;;11.70;85.50;;;;;;5042020;28;19958;-68
2022/09/27 08:40:31;;;;;;;;;;;11.90;85.50;;;;;;4990092;28;20036;-68
2022/09/27 08:43:01;;;;;;;;;;;11.90;85.30;;;;;;5036011;28;19968;-67
2022/09/27 08:45:35;;;;;;;;;;;11.90;84.80;;;;;;5017689;28;20391;-68
2022/09/27 08:48:04;;;;;;;;;;;11.90;84.80;;;;;;5010101;28;19933;-68
2022/09/27 08:50:34;;;;;;;;;;;11.90;84.80;;;;;;5013217;28;19925;-68
2022/09/27 08:53:04;;;;;;;;;;;11.90;84.70;;;;;;5016791;28;20508;-69
2022/09/27 08:55:36;;;;;;;;;;;11.90;84.70;;;;;;5036340;28;20382;-68
2022/09/27 08:58:12;;;;;;;;;;;12.00;84.50;;;;;;5028984;28;19933;-67
2022/09/27 09:00:42;;;;;;;;;;;12.10;84.40;;;;;;5019650;28;19941;-67
2022/09/27 09:03:17;;;;;;;;;;;12.10;84.10;;;;;;5013218;28;20409;-70
2022/09/27 09:05:48;;;;;;;;;;;12.20;84.40;;;;;;5017949;28;19940;-68
2022/09/27 09:08:20;;;;;;;;;;;12.30;84.30;;;;;;5014137;28;20379;-67
2022/09/27 09:13:44;;;;;;;;;;;12.60;83.60;;;;;;5019326;28;19934;-67
2022/09/27 09:16:17;;;;;;;;;;;12.70;83.50;;;;;;5015824;28;20024;-67
2022/09/27 09:18:59;;;;;;;;;;;12.70;82.80;;;;;;5031237;28;19969;-68
2022/09/27 09:21:48;;;;;;;;;;;12.70;83.10;;;;;;5011935;28;19974;-67
2022/09/27 09:24:22;;;;;;;;;;;12.60;82.70;;;;;;5014720;28;20437;-69
2022/09/27 09:26:52;;;;;;;;;;;12.60;82.70;;;;;;5010830;28;19930;-68
2022/09/27 09:29:25;;;;;;;;;;;12.50;83.00;;;;;;5014370;28;19948;-69
2022/09/27 09:31:57;;;;;;;;;;;12.60;82.90;;;;;;5013877;28;19935;-69
2022/09/27 09:34:25;;;;;;;;;;;12.60;82.40;;;;;;5018159;28;19931;-69
2022/09/27 09:36:55;;;;;;;;;;;12.60;82.60;;;;;;5008318;28;19930;-69
2022/09/27 09:39:24;;;;;;;;;;;12.70;82.40;;;;;;5015294;28;20453;-68
2022/09/27 09:41:58;;;;;;;;;;;12.80;81.80;;;;;;5034878;28;19933;-68
2022/09/27 09:44:28;;;;;;;;;;;12.90;81.70;;;;;;5018204;28;19925;-69
2022/09/27 09:47:02;;;;;;;;;;;13.10;81.50;;;;;;5032089;28;20484;-68
2022/09/27 09:49:30;;;;;;;;;;;13.10;81.40;;;;;;5009936;28;19932;-68
2022/09/27 09:52:00;;;;;;;;;;;13.10;80.90;;;;;;5012607;28;19933;-68
2022/09/27 09:54:31;;;;;;;;;;;13.10;80.30;;;;;;5028436;28;20355;-69
2022/09/27 09:57:01;;;;;;;;;;;13.20;80.30;;;;;;5011795;28;19929;-69
2022/09/27 09:59:30;;;;;;;;;;;13.30;80.50;;;;;;5027748;28;19961;-68
2022/09/27 10:02:01;;;;;;;;;;;13.40;80.50;;;;;;5013667;28;19933;-67
2022/09/27 10:04:31;;;;;;;;;;;13.50;80.40;;;;;;5011353;28;20033;-70
2022/09/27 10:07:00;;;;;;;;;;;13.50;80.10;;;;;;5013151;28;19932;-67
2022/09/27 10:09:32;;;;;;;;;;;13.50;79.60;;;;;;5029322;28;19973;-68
2022/09/27 10:12:25;;;;;;;;;;;13.40;79.50;;;;;;5010476;28;19925;-69
2022/09/27 10:14:55;;;;;;;;;;;13.30;79.40;;;;;;5030220;28;20358;-69
2022/09/27 10:17:24;;;;;;;;;;;13.30;79.80;;;;;;5017585;28;19979;-69
2022/09/27 10:19:53;;;;;;;;;;;13.20;79.50;;;;;;5033925;28;20032;-69
2022/09/27 10:22:24;;;;;;;;;;;13.30;79.30;;;;;;5029729;28;19925;-68
2022/09/27 10:24:55;;;;;;;;;;;13.40;79.50;;;;;;5017794;28;19961;-68
2022/09/27 10:27:58;;;;;;;;;;;13.40;79.40;;;;;;5008690;28;19929;-69
2022/09/27 10:30:31;;;;;;;;;;;13.50;79.50;;;;;;5008246;28;19979;-68
2022/09/27 10:33:02;;;;;;;;;;;13.60;78.90;;;;;;5011376;28;19968;-69
2022/09/27 10:35:45;;;;;;;;;;;13.70;78.80;;;;;;5013065;28;19929;-69
2022/09/27 10:38:28;;;;;;;;;;;13.80;78.70;;;;;;5032202;28;20344;-69
2022/09/27 10:41:16;;;;;;;;;;;13.90;77.90;;;;;;5015512;28;19971;-68
2022/09/27 10:43:44;;;;;;;;;;;13.80;77.50;;;;;;5032282;28;20392;-68
2022/09/27 10:46:26;;;;;;;;;;;13.70;76.60;;;;;;5019040;28;20399;-69
2022/09/27 10:49:08;;;;;;;;;;;13.60;76.30;;;;;;5039145;28;19931;-69
2022/09/27 10:51:37;;;;;;;;;;;13.70;76.20;;;;;;5029700;28;19933;-69
2022/09/27 10:54:04;;;;;;;;;;;13.80;76.30;;;;;;5033912;28;19947;-69
2022/09/27 10:56:35;;;;;;;;;;;13.80;76.00;;;;;;5035886;28;19940;-69
2022/09/27 10:59:04;;;;;;;;;;;13.80;75.70;;;;;;5022199;28;19936;-70
2022/09/27 11:01:39;;;;;;;;;;;13.90;75.90;;;;;;5016440;28;19936;-69
2022/09/27 11:04:33;;;;;;;;;;;13.90;76.10;;;;;;5008718;28;20327;-70
2022/09/27 11:07:11;;;;;;;;;;;14.00;75.20;;;;;;5019048;28;19925;-68
2022/09/27 11:09:45;;;;;;;;;;;14.00;75.10;;;;;;5034262;28;19925;-68
2022/09/27 11:12:13;;;;;;;;;;;14.10;75.30;;;;;;5035730;28;20019;-69
2022/09/27 11:14:41;;;;;;;;;;;14.10;75.10;;;;;;5025844;28;19933;-70
2022/09/27 11:17:13;;;;;;;;;;;14.10;74.80;;;;;;5001963;28;19925;-70
2022/09/27 11:19:52;;;;;;;;;;;14.10;74.70;;;;;;5025097;28;19929;-69
2022/09/27 11:22:26;;;;;;;;;;;14.10;74.00;;;;;;5016505;28;19976;-68
2022/09/27 11:24:59;;;;;;;;;;;14.10;74.00;;;;;;5012014;28;20382;-70
2022/09/27 11:27:33;;;;;;;;;;;14.10;73.50;;;;;;5026095;28;19933;-69
2022/09/27 11:30:04;;;;;;;;;;;14.10;73.40;;;;;;5018141;28;19968;-69
2022/09/27 11:33:21;;;;;;;;;;;14.00;73.20;;;;;;5009910;28;20351;-69
2022/09/27 11:35:55;;;;;;;;;;;13.90;73.30;;;;;;5016123;28;19925;-69
2022/09/27 11:38:27;;;;;;;;;;;13.80;73.60;;;;;;5012265;28;19934;-69
2022/09/27 11:41:03;;;;;;;;;;;13.70;74.40;;;;;;5011415;28;19968;-69
2022/09/27 11:43:40;;;;;;;;;;;13.60;75.30;;;;;;5020815;28;19925;-70
2022/09/27 11:46:17;;;;;;;;;;;13.50;76.10;;;;;;5014988;28;20433;-68
2022/09/27 11:48:54;;;;;;;;;;;13.40;77.00;;;;;;5034828;28;19957;-69
2022/09/27 11:51:31;;;;;;;;;;;13.30;77.70;;;;;;5010220;28;20016;-71
2022/09/27 11:54:12;;;;;;;;;;;13.30;78.10;;;;;;5033708;28;19925;-71
2022/09/27 11:56:43;;;;;;;;;;;13.50;78.20;;;;;;5030549;28;19925;-70
2022/09/27 11:59:25;;;;;;;;;;;13.60;78.00;;;;;;5025766;28;20043;-70
2022/09/27 12:01:56;;;;;;;;;;;13.70;77.70;;;;;;5019098;28;19940;-69
2022/09/27 12:04:32;;;;;;;;;;;13.70;77.20;;;;;;5004510;28;19933;-69
2022/09/27 12:07:04;;;;;;;;;;;13.70;76.80;;;;;;5014542;28;19956;-69
2022/09/27 12:09:34;;;;;;;;;;;13.70;76.00;;;;;;5015926;28;19933;-68
2022/09/27 12:12:07;;;;;;;;;;;13.70;76.10;;;;;;5023858;28;20347;-69
2022/09/27 12:14:36;;;;;;;;;;;13.70;76.20;;;;;;5013864;28;19968;-69
2022/09/27 12:17:04;;;;;;;;;;;13.80;75.40;;;;;;5034014;28;19975;-69
2022/09/27 12:19:35;;;;;;;;;;;13.70;75.50;;;;;;5020010;28;19925;-69
2022/09/27 12:22:14;;;;;;;;;;;13.60;75.80;;;;;;5017501;28;19929;-69
2022/09/27 12:24:45;;;;;;;;;;;13.60;76.10;;;;;;5032573;28;19925;-69
2022/09/27 12:27:35;;;;;;;;;;;13.50;76.30;;;;;;5027006;28;19968;-69
2022/09/27 12:30:04;;;;;;;;;;;13.50;76.50;;;;;;5034016;28;19983;-70
2022/09/27 12:32:40;;;;;;;;;;;13.50;76.40;;;;;;5018901;28;20346;-70
2022/09/27 12:35:14;;;;;;;;;;;13.60;76.30;;;;;;5017539;28;20282;-69
2022/09/27 12:37:43;;;;;;;;;;;13.60;76.30;;;;;;5020656;28;20158;-71
2022/09/27 12:40:16;;;;;;;;;;;13.60;76.50;;;;;;5011995;28;19925;-70
2022/09/27 12:42:47;;;;;;;;;;;13.50;76.60;;;;;;5026594;28;19984;-70
2022/09/27 12:45:32;;;;;;;;;;;13.50;76.60;;;;;;5042132;28;19947;-70
2022/09/27 12:48:04;;;;;;;;;;;13.40;76.70;;;;;;5018220;28;19983;-70
2022/09/27 12:50:39;;;;;;;;;;;13.40;76.60;;;;;;5023157;28;20540;-70
2022/09/27 12:53:11;;;;;;;;;;;13.40;76.70;;;;;;5026796;28;19936;-71
2022/09/27 12:55:59;;;;;;;;;;;13.50;76.90;;;;;;5035427;28;19933;-71
2022/09/27 12:58:44;;;;;;;;;;;13.60;77.20;;;;;;5038233;28;20491;-69
2022/09/27 13:01:18;;;;;;;;;;;13.60;77.00;;;;;;5023773;28;20029;-70
2022/09/27 13:04:00;;;;;;;;;;;13.70;77.30;;;;;;5044820;28;19972;-69
2022/09/27 13:06:39;;;;;;;;;;;13.70;76.80;;;;;;5015370;28;19929;-70
2022/09/27 13:09:18;;;;;;;;;;;13.80;77.00;;;;;;5030247;28;19929;-70
2022/09/27 13:11:51;;;;;;;;;;;13.80;76.90;;;;;;5039127;28;20410;-69
2022/09/27 13:14:19;;;;;;;;;;;13.70;76.90;;;;;;5043076;28;20393;-70
2022/09/27 13:16:50;;;;;;;;;;;13.70;76.60;;;;;;5028499;28;20016;-69
2022/09/27 13:19:36;;;;;;;;;;;13.70;76.40;;;;;;5040523;28;19979;-69
2022/09/27 13:22:03;;;;;;;;;;;13.70;76.60;;;;;;5010284;28;19929;-70
2022/09/27 13:24:49;;;;;;;;;;;13.70;76.00;;;;;;5024807;28;21543;-71
2022/09/27 13:27:39;;;;;;;;;;;13.70;75.90;;;;;;5031340;28;20399;-70
2022/09/27 13:30:26;;;;;;;;;;;13.70;75.90;;;;;;5027190;28;19925;-70
2022/09/27 13:33:07;;;;;;;;;;;13.60;75.90;;;;;;5042546;28;19925;-70
2022/09/27 13:35:42;;;;;;;;;;;13.70;75.70;;;;;;4998834;28;20409;-70
2022/09/27 13:38:21;;;;;;;;;;;13.70;75.80;;;;;;5030921;28;20168;-71
2022/09/27 13:40:49;;;;;;;;;;;13.70;76.10;;;;;;5041267;28;19925;-70
2022/09/27 13:43:40;;;;;;;;;;;13.80;76.10;;;;;;5022994;28;19935;-71
2022/09/27 13:46:17;;;;;;;;;;;13.90;76.00;;;;;;5045119;28;20387;-70
2022/09/27 13:48:49;;;;;;;;;;;13.90;76.20;;;;;;5048929;28;19925;-70
2022/09/27 13:51:20;;;;;;;;;;;13.90;76.20;;;;;;5046598;28;19997;-69
2022/09/27 13:53:56;;;;;;;;;;;13.90;76.20;;;;;;5047933;28;19936;-70
2022/09/27 13:56:45;;;;;;;;;;;13.90;76.20;;;;;;5039044;28;20413;-69
2022/09/27 13:59:17;;;;;;;;;;;13.90;76.40;;;;;;5046630;28;19925;-69
2022/09/27 14:01:46;;;;;;;;;;;13.90;76.60;;;;;;5048571;28;20371;-70
2022/09/27 14:04:16;;;;;;;;;;;13.90;76.90;;;;;;5044213;28;19983;-70
2022/09/27 14:06:46;;;;;;;;;;;13.90;76.90;;;;;;5047858;28;19987;-70
2022/09/27 14:09:17;;;;;;;;;;;13.90;77.10;;;;;;5046262;28;19936;-71
2022/09/27 14:11:48;;;;;;;;;;;13.90;77.20;;;;;;5030275;28;19955;-71
2022/09/27 14:14:18;;;;;;;;;;;13.90;77.30;;;;;;5039779;28;19956;-70
2022/09/27 14:16:52;;;;;;;;;;;13.90;77.40;;;;;;5030007;28;19943;-69
2022/09/27 14:19:20;;;;;;;;;;;13.80;77.50;;;;;;5046629;28;19925;-70
2022/09/27 14:21:47;;;;;;;;;;;13.80;77.50;;;;;;5047698;28;20271;-70
2022/09/27 14:24:25;;;;;;;;;;;13.80;77.40;;;;;;5007692;28;20405;-70
2022/09/27 14:27:03;;;;;;;;;;;13.80;77.50;;;;;;5025226;28;19925;-69
2022/09/27 14:29:34;;;;;;;;;;;13.70;77.50;;;;;;5027928;28;19928;-69
2022/09/27 14:32:04;;;;;;;;;;;13.70;77.50;;;;;;5045938;28;19929;-69
2022/09/27 14:34:43;;;;;;;;;;;13.70;77.70;;;;;;5039038;28;20458;-70
2022/09/27 14:37:23;;;;;;;;;;;13.70;77.90;;;;;;5040262;28;19925;-70
2022/09/27 14:39:57;;;;;;;;;;;13.70;77.10;;;;;;5022606;28;19931;-69
2022/09/27 14:42:35;;;;;;;;;;;13.60;76.60;;;;;;5043606;28;20299;-70
2022/09/27 14:45:12;;;;;;;;;;;13.60;76.20;;;;;;5046508;28;19932;-71
2022/09/27 14:47:45;;;;;;;;;;;13.50;75.40;;;;;;5047964;28;19963;-69
2022/09/27 14:50:23;;;;;;;;;;;13.50;75.60;;;;;;5038107;28;20278;-70
2022/09/27 14:52:56;;;;;;;;;;;13.50;75.90;;;;;;5041250;28;19935;-70
2022/09/27 14:55:28;;;;;;;;;;;13.40;75.70;;;;;;5033074;28;24111;-70
2022/09/27 14:57:57;;;;;;;;;;;13.50;76.20;;;;;;5041180;28;20031;-70
2022/09/27 15:00:27;;;;;;;;;;;13.50;76.00;;;;;;5043624;28;19929;-69